Flight Track Log - Related Links

Times and Time Zones

All times are in EDT time to prevent confusion due to time zone crossing. See the PDT4155 flight status page for this flight to view local times or setup timezone preferences in your user account.

Time Position Orientation Groundspeed Altitude Reporting Facility
EDT Latitude Longitude Course Direction KTS MPH feet Rate Location/Type
Tue 07:04:00 AM 42.0348 -75.9228 180° South  Level Estimated
Tue 07:05:00 AM 41.9753 -75.9250 182° South  Level FlightAware Approximate
Tue 07:06:00 AM 41.9158 -75.9272 182° South  Level FlightAware Approximate
Tue 07:07:00 AM 41.8581 -75.9072 154° Southeast  Level Estimated
Tue 07:08:00 AM 41.8004 -75.8873 160° South  Level Estimated
Tue 07:09:00 AM 41.7428 -75.8674 159° South  Level Estimated
Tue 07:10:00 AM 41.6845 -75.8512 168° South  Level FlightAware Approximate
Tue 07:11:00 AM 41.6268 -75.8312 153° Southeast  Level Estimated
Tue 07:12:00 AM 41.5691 -75.8113 161° South  Level Estimated
Tue 07:13:00 AM 41.5124 -75.7872 162° South  Level FlightAware Approximate
Tue 07:14:00 AM 41.4556 -75.7631 162° South  Level FlightAware Approximate
Tue 07:15:00 AM 41.3979 -75.7436 162° South  Level Estimated
Tue 07:16:00 AM 41.3414 -75.7184 161° South  Level FlightAware Approximate
Tue 07:17:00 AM 41.2850 -75.6932 161° South  Level FlightAware Approximate
Tue 07:18:00 AM 41.2285 -75.6680 161° South  Level FlightAware Approximate
Tue 07:19:00 AM 41.1720 -75.6429 161° South  Level FlightAware Approximate
Tue 07:20:00 AM 41.1141 -75.6246 159° South  Level Estimated
Tue 07:21:00 AM 41.0562 -75.6064 163° South  Level Estimated
Tue 07:22:00 AM 40.9999 -75.5804 161° South  Level FlightAware Approximate
Tue 07:23:00 AM 40.9437 -75.5544 161° South  Level FlightAware Approximate
Tue 07:24:00 AM 40.8875 -75.5285 161° South  Level FlightAware Approximate
Tue 07:25:00 AM 40.8293 -75.5117 190° South  Level Estimated
Tue 07:26:00 AM 40.7697 -75.5096 178° South  Level FlightAware Approximate
Tue 07:27:00 AM 40.7102 -75.5075 178° South  Level FlightAware Approximate
Tue 07:27:22 AM 40.6000 -75.4833 193° South 265 305 5,200  Level Philadelphia TRACON
Tue 07:27:58 AM 40.5667 -75.5000 201° Southwest 264 304 5,000 -176 Descending Philadelphia TRACON
Tue 07:28:00 AM 40.6507 -75.5054 178° South  Level FlightAware Approximate
Tue 07:29:00 AM 40.5931 -75.4856 187° South  Level Estimated
Tue 07:29:04 AM 40.5000 -75.4500 150° Southeast 234 269 4,900  Level Philadelphia TRACON
Tue 07:29:58 AM 40.4500 -75.4167 153° Southeast 240 276 4,900 53 Level Philadelphia TRACON
Tue 07:30:00 AM 40.5354 -75.4658 190° South  Level Estimated
Tue 07:30:58 AM 40.3833 -75.3833 159° South 244 281 5,000  Level Philadelphia TRACON
Tue 07:31:00 AM 40.4773 -75.4830 193° South  Level FlightAware Approximate
Tue 07:31:58 AM 40.3167 -75.3500 159° South 248 285 4,500  Level Philadelphia TRACON
Tue 07:32:00 AM 40.4192 -75.5002 193° South  Level FlightAware Approximate
Tue 07:32:58 AM 40.2500 -75.3167 159° South 271 312 3,900  Level Philadelphia TRACON
Tue 07:34:04 AM 40.1833 -75.2833 159° South 249 287 4,000 48 Climbing Philadelphia TRACON
Tue 07:35:04 AM 40.1167 -75.2333 150° Southeast 245 282 4,000  Level Philadelphia TRACON
Tue 07:36:05 AM 40.0667 -75.1833 143° Southeast 244 281 4,000 -331 Level Philadelphia TRACON
Tue 07:37:11 AM 40.0000 -75.1500 159° South 240 276 3,300 -905 Descending Philadelphia TRACON
Tue 07:38:11 AM 39.9333 -75.1333 169° South 226 260 2,100 -1,150 Descending Philadelphia TRACON
Tue 07:39:11 AM 39.9000 -75.1667 217° Southwest 157 181 1,000 -1,100 Descending Philadelphia TRACON

Login

Don't have an account? Register now (free) for customized features, flight alerts, and more!